Time;durP1;ratioP1;P1;durP2;ratioP2;P2;SDS_P1;SDS_P2;PMS_P1;PMS_P2;Temp;Humidity;BMP_temperature;BMP_pressure;BME280_temperature;BME280_humidity;BME280_pressure;Samples;Min_cycle;Max_cycle;Signal;HPM_P1;HPM_P2
2022/01/19 00:00:58;;;;;;;77.32;33.38;;;;;;;;;;4927711;29;20063;-81
2022/01/19 00:03:25;;;;;;;64.45;28.65;;;;;;;;;;4921260;28;20086;-81
2022/01/19 00:05:51;;;;;;;68.65;30.40;;;;;;;;;;4911473;29;20122;-81
2022/01/19 00:08:20;;;;;;;68.43;31.45;;;;;;;;;;4927978;29;20059;-81
2022/01/19 00:10:47;;;;;;;78.07;33.63;;;;;;;;;;4919528;29;20122;-81
2022/01/19 00:13:13;;;;;;;78.88;33.30;;;;;;;;;;4911946;29;20051;-81
2022/01/19 00:15:39;;;;;;;78.57;32.05;;;;;;;;;;4945809;29;20127;-81
2022/01/19 00:18:06;;;;;;;72.82;31.40;;;;;;;;;;4929508;29;20479;-81
2022/01/19 00:20:33;;;;;;;69.65;30.45;;;;;;;;;;4931654;29;20039;-81
2022/01/19 00:22:59;;;;;;;76.10;31.35;;;;;;;;;;4931372;29;20052;-81
2022/01/19 00:25:25;;;;;;;83.50;33.42;;;;;;;;;;4917197;29;20051;-81
2022/01/19 00:27:52;;;;;;;76.93;32.28;;;;;;;;;;4927614;29;20050;-81
2022/01/19 00:30:18;;;;;;;81.05;33.25;;;;;;;;;;4926389;29;20043;-81
2022/01/19 00:32:44;;;;;;;86.28;34.72;;;;;;;;;;4945670;29;20059;-81
2022/01/19 00:35:12;;;;;;;87.55;33.00;;;;;;;;;;4935256;29;20144;-81
2022/01/19 00:37:38;;;;;;;83.82;33.60;;;;;;;;;;4910936;29;20043;-82
2022/01/19 00:40:05;;;;;;;80.13;33.53;;;;;;;;;;4936297;29;20054;-81
2022/01/19 00:42:31;;;;;;;84.97;33.17;;;;;;;;;;4922567;29;20114;-81
2022/01/19 00:44:57;;;;;;;93.93;35.22;;;;;;;;;;4944572;29;20130;-81
2022/01/19 00:47:24;;;;;;;84.43;34.72;;;;;;;;;;4929249;29;20054;-81
2022/01/19 00:49:50;;;;;;;91.05;34.97;;;;;;;;;;4923126;29;20052;-82
2022/01/19 00:52:16;;;;;;;86.80;34.20;;;;;;;;;;4925826;29;20433;-81
2022/01/19 00:54:42;;;;;;;88.35;35.03;;;;;;;;;;4926589;29;20406;-81
2022/01/19 00:57:08;;;;;;;90.85;34.40;;;;;;;;;;4941696;29;20130;-81
2022/01/19 00:59:34;;;;;;;96.00;36.83;;;;;;;;;;4944672;29;20048;-82
2022/01/19 01:02:01;;;;;;;90.88;33.95;;;;;;;;;;4927187;29;20131;-81
2022/01/19 01:04:28;;;;;;;90.07;35.53;;;;;;;;;;4925689;29;20079;-81
2022/01/19 01:06:54;;;;;;;99.22;38.08;;;;;;;;;;4933592;29;20047;-81
2022/01/19 01:09:20;;;;;;;94.60;38.72;;;;;;;;;;4949417;29;20078;-82
2022/01/19 01:20:05;;;;;;;106.15;39.83;;;;;;;;;;4929414;29;20494;-81
2022/01/19 01:22:31;;;;;;;104.68;39.72;;;;;;;;;;4949068;29;20055;-81
2022/01/19 01:24:57;;;;;;;99.82;39.20;;;;;;;;;;4957216;28;20361;-81
2022/01/19 01:27:23;;;;;;;96.57;39.35;;;;;;;;;;4908017;29;20046;-81
2022/01/19 01:29:49;;;;;;;95.25;38.83;;;;;;;;;;4928300;29;20118;-81
2022/01/19 01:32:15;;;;;;;110.53;43.78;;;;;;;;;;4941766;29;20050;-81
2022/01/19 01:34:41;;;;;;;115.85;40.15;;;;;;;;;;4927559;29;20176;-81
2022/01/19 01:37:07;;;;;;;112.63;40.00;;;;;;;;;;4924093;29;20055;-81
2022/01/19 01:39:33;;;;;;;117.50;40.05;;;;;;;;;;4927709;29;20131;-81
2022/01/19 01:41:59;;;;;;;113.05;41.45;;;;;;;;;;4945198;29;20082;-80
2022/01/19 01:44:26;;;;;;;118.00;40.08;;;;;;;;;;4930716;29;20055;-81
2022/01/19 01:46:59;;;;;;;103.47;37.83;;;;;;;;;;4921793;29;20090;-81
2022/01/19 01:49:39;;;;;;;105.90;39.10;;;;;;;;;;4912708;29;20047;-81
2022/01/19 01:54:50;;;;;;;116.22;36.40;;;;;;;;;;4932664;28;20406;-82
2022/01/19 01:57:16;;;;;;;104.15;35.95;;;;;;;;;;4944826;29;20055;-81
2022/01/19 01:59:42;;;;;;;113.97;38.85;;;;;;;;;;4909869;29;20051;-81
2022/01/19 02:02:08;;;;;;;107.50;37.85;;;;;;;;;;4925933;29;20098;-82
2022/01/19 02:04:40;;;;;;;110.95;39.90;;;;;;;;;;4933845;29;20060;-81
2022/01/19 02:09:57;;;;;;;121.60;39.38;;;;;;;;;;4902726;29;20055;-82
2022/01/19 02:23:46;;;;;;;116.03;41.45;;;;;;;;;;4929986;29;20110;-82
2022/01/19 02:26:19;;;;;;;113.32;44.88;;;;;;;;;;4930429;29;20483;-82
2022/01/19 02:36:35;;;;;;;120.05;47.67;;;;;;;;;;4905923;29;20543;-83
2022/01/19 02:40:27;;;;;;;115.45;46.70;;;;;;;;;;4876086;29;20049;-83
2022/01/19 02:51:04;;;;;;;112.70;43.80;;;;;;;;;;4933979;29;20125;-83
2022/01/19 02:53:33;;;;;;;108.97;45.22;;;;;;;;;;4930685;29;20043;-82
2022/01/19 02:55:59;;;;;;;120.38;48.58;;;;;;;;;;4933249;29;20138;-82
2022/01/19 02:58:25;;;;;;;140.80;51.50;;;;;;;;;;4915114;29;20051;-83
2022/01/19 03:09:06;;;;;;;119.88;41.78;;;;;;;;;;4923999;28;20510;-82
2022/01/19 03:11:32;;;;;;;119.93;42.03;;;;;;;;;;4921085;29;20052;-83
2022/01/19 03:13:58;;;;;;;117.05;40.10;;;;;;;;;;4927219;29;20347;-82
2022/01/19 03:16:24;;;;;;;143.93;44.63;;;;;;;;;;4938718;29;20044;-83
2022/01/19 03:18:50;;;;;;;138.38;42.72;;;;;;;;;;4929939;29;20056;-82
2022/01/19 03:21:17;;;;;;;138.23;43.00;;;;;;;;;;4924995;29;20046;-82
2022/01/19 03:23:44;;;;;;;129.30;42.58;;;;;;;;;;4905154;29;20063;-82
2022/01/19 03:26:10;;;;;;;138.95;41.10;;;;;;;;;;4910515;29;20117;-82
2022/01/19 03:28:36;;;;;;;149.90;43.00;;;;;;;;;;4943682;29;20043;-82
2022/01/19 03:31:03;;;;;;;163.93;48.00;;;;;;;;;;4926725;29;20046;-81
2022/01/19 03:33:29;;;;;;;151.35;43.20;;;;;;;;;;4929196;29;20400;-80
2022/01/19 03:35:55;;;;;;;181.63;45.25;;;;;;;;;;4925432;29;20076;-81
2022/01/19 03:38:21;;;;;;;173.10;45.45;;;;;;;;;;4944035;29;20054;-82
2022/01/19 03:40:47;;;;;;;192.13;48.10;;;;;;;;;;4923913;29;20399;-81
2022/01/19 03:43:13;;;;;;;178.85;47.10;;;;;;;;;;4942818;29;20431;-82
2022/01/19 03:45:39;;;;;;;195.50;48.00;;;;;;;;;;4897262;29;20474;-81
2022/01/19 03:48:36;;;;;;;197.80;44.65;;;;;;;;;;4925221;29;20455;-81
2022/01/19 03:50:55;;;;;;;182.05;44.72;;;;;;;;;;4922840;29;20070;-82
2022/01/19 03:53:21;;;;;;;189.73;43.25;;;;;;;;;;4908544;29;20039;-81
2022/01/19 03:55:47;;;;;;;186.65;44.33;;;;;;;;;;4925510;29;20044;-82
2022/01/19 03:58:13;;;;;;;188.43;41.85;;;;;;;;;;4920376;29;20067;-81
2022/01/19 04:00:42;;;;;;;161.35;39.63;;;;;;;;;;4922753;29;20130;-81
2022/01/19 04:03:11;;;;;;;191.73;41.25;;;;;;;;;;4905262;29;20062;-81
2022/01/19 04:06:05;;;;;;;174.00;41.50;;;;;;;;;;4906949;29;20051;-81
2022/01/19 04:08:24;;;;;;;152.80;40.17;;;;;;;;;;4926488;29;20487;-81
2022/01/19 04:10:50;;;;;;;136.43;39.25;;;;;;;;;;4922376;29;20079;-81
2022/01/19 04:15:54;;;;;;;153.75;40.63;;;;;;;;;;4926230;29;20500;-82
2022/01/19 04:18:20;;;;;;;162.52;41.47;;;;;;;;;;4913050;28;20484;-81
2022/01/19 04:20:52;;;;;;;152.57;40.85;;;;;;;;;;4929001;29;20046;-81
2022/01/19 04:23:19;;;;;;;140.48;38.92;;;;;;;;;;4912942;29;20065;-82
2022/01/19 04:25:45;;;;;;;126.15;37.47;;;;;;;;;;4927740;29;20058;-81
2022/01/19 04:28:12;;;;;;;111.25;35.60;;;;;;;;;;4914678;29;20081;-82
2022/01/19 04:30:39;;;;;;;125.57;35.78;;;;;;;;;;4928953;29;20052;-81
2022/01/19 04:33:09;;;;;;;122.97;35.70;;;;;;;;;;4933100;29;20043;-81
2022/01/19 04:35:45;;;;;;;116.22;35.38;;;;;;;;;;4910628;29;20110;-81
2022/01/19 05:15:37;;;;;;;100.85;33.10;;;;;;;;;;4927796;29;20043;-82
2022/01/19 05:18:04;;;;;;;104.97;34.55;;;;;;;;;;4926835;29;20048;-82
2022/01/19 05:20:30;;;;;;;98.30;33.58;;;;;;;;;;4924268;29;20059;-82
2022/01/19 05:22:56;;;;;;;92.70;32.28;;;;;;;;;;4922716;29;20634;-83
2022/01/19 05:25:22;;;;;;;94.22;32.95;;;;;;;;;;4912288;29;20106;-81
2022/01/19 05:27:48;;;;;;;90.88;34.30;;;;;;;;;;4932722;29;20093;-80
2022/01/19 05:30:17;;;;;;;88.43;31.90;;;;;;;;;;4943282;28;20531;-82
2022/01/19 05:32:43;;;;;;;92.18;32.20;;;;;;;;;;4931122;29;20043;-78
2022/01/19 05:35:09;;;;;;;90.15;32.63;;;;;;;;;;4947356;29;20102;-81
2022/01/19 05:37:36;;;;;;;99.22;32.58;;;;;;;;;;4913700;29;20051;-81
2022/01/19 05:40:07;;;;;;;86.32;29.45;;;;;;;;;;4914603;29;20062;-81
2022/01/19 05:42:33;;;;;;;88.05;32.80;;;;;;;;;;4926452;29;20444;-81
2022/01/19 05:44:59;;;;;;;89.45;32.35;;;;;;;;;;4922229;29;20578;-82
2022/01/19 05:47:26;;;;;;;96.57;32.25;;;;;;;;;;4926270;29;20431;-82
2022/01/19 05:49:52;;;;;;;86.70;31.73;;;;;;;;;;4930459;29;20155;-82
2022/01/19 05:52:19;;;;;;;87.03;32.42;;;;;;;;;;4916369;29;20070;-81
2022/01/19 05:54:45;;;;;;;85.68;33.30;;;;;;;;;;4929372;29;20043;-77
2022/01/19 05:57:12;;;;;;;89.32;32.30;;;;;;;;;;4928797;29;20056;-79
2022/01/19 05:59:38;;;;;;;82.78;32.05;;;;;;;;;;4926396;29;20071;-79
2022/01/19 06:02:04;;;;;;;92.95;32.53;;;;;;;;;;4930100;29;20090;-81
2022/01/19 06:04:31;;;;;;;94.60;33.83;;;;;;;;;;4945799;29;20062;-80
2022/01/19 06:06:57;;;;;;;93.45;33.60;;;;;;;;;;4951655;29;20102;-80
2022/01/19 06:11:59;;;;;;;88.38;33.80;;;;;;;;;;4929544;29;20053;-80
2022/01/19 06:14:25;;;;;;;96.28;32.63;;;;;;;;;;4933671;29;20391;-80
2022/01/19 06:16:51;;;;;;;84.82;33.05;;;;;;;;;;4949556;29;20144;-79
2022/01/19 06:19:19;;;;;;;95.22;35.55;;;;;;;;;;4914237;29;20071;-81
2022/01/19 06:21:45;;;;;;;89.68;33.95;;;;;;;;;;4901919;29;20078;-80
2022/01/19 06:24:11;;;;;;;85.25;32.67;;;;;;;;;;4930422;29;20096;-80
2022/01/19 06:26:38;;;;;;;86.22;33.08;;;;;;;;;;4940875;29;20044;-79
2022/01/19 06:29:05;;;;;;;85.68;33.47;;;;;;;;;;4915649;29;20094;-79
2022/01/19 06:31:31;;;;;;;91.13;34.05;;;;;;;;;;4918374;29;20077;-80
2022/01/19 06:33:57;;;;;;;80.97;32.75;;;;;;;;;;4935368;29;20047;-79
2022/01/19 06:36:24;;;;;;;88.75;32.92;;;;;;;;;;4912485;28;20042;-80
2022/01/19 06:38:50;;;;;;;80.68;32.85;;;;;;;;;;4941433;29;20070;-80
2022/01/19 06:41:16;;;;;;;81.95;33.40;;;;;;;;;;4917848;28;20051;-80
2022/01/19 06:43:42;;;;;;;83.45;33.40;;;;;;;;;;4932761;29;20364;-80
2022/01/19 06:46:08;;;;;;;84.85;34.38;;;;;;;;;;4918319;29;20042;-79
2022/01/19 06:48:34;;;;;;;86.07;33.05;;;;;;;;;;4924013;29;20043;-79
2022/01/19 06:51:00;;;;;;;80.93;34.40;;;;;;;;;;4931795;29;20074;-82
2022/01/19 06:53:26;;;;;;;74.53;31.77;;;;;;;;;;4909316;29;20107;-82
2022/01/19 06:55:57;;;;;;;79.30;33.67;;;;;;;;;;4920467;29;20064;-80
2022/01/19 06:58:23;;;;;;;84.35;33.47;;;;;;;;;;4922685;29;20051;-78
2022/01/19 07:00:49;;;;;;;78.22;33.60;;;;;;;;;;4917707;29;20055;-78
2022/01/19 07:03:15;;;;;;;80.82;34.33;;;;;;;;;;4916587;29;20050;-77
2022/01/19 07:05:42;;;;;;;80.07;33.08;;;;;;;;;;4919034;29;20043;-77
2022/01/19 07:08:08;;;;;;;78.53;34.38;;;;;;;;;;4932815;29;20075;-78
2022/01/19 07:10:34;;;;;;;72.25;32.97;;;;;;;;;;4929820;29;20077;-78
2022/01/19 07:13:01;;;;;;;84.57;35.72;;;;;;;;;;4943959;29;20048;-79
2022/01/19 07:15:27;;;;;;;81.85;33.95;;;;;;;;;;4921161;29;20044;-79
2022/01/19 07:17:53;;;;;;;77.95;33.47;;;;;;;;;;4944177;29;20044;-79
2022/01/19 07:20:19;;;;;;;78.70;33.67;;;;;;;;;;4932924;29;20162;-78
2022/01/19 07:22:46;;;;;;;74.35;33.15;;;;;;;;;;4917815;29;20439;-79
2022/01/19 07:25:12;;;;;;;76.88;34.72;;;;;;;;;;4929644;29;20102;-79
2022/01/19 07:27:38;;;;;;;88.07;34.60;;;;;;;;;;4916979;29;20051;-79
2022/01/19 07:30:05;;;;;;;79.32;35.00;;;;;;;;;;4907124;29;20058;-80
2022/01/19 07:32:34;;;;;;;82.63;35.70;;;;;;;;;;4930174;29;20070;-79
2022/01/19 07:35:00;;;;;;;73.70;34.55;;;;;;;;;;4941399;29;20070;-79
2022/01/19 07:37:27;;;;;;;86.05;36.47;;;;;;;;;;4909627;29;20102;-79
2022/01/19 07:39:53;;;;;;;83.82;35.33;;;;;;;;;;4942258;29;20443;-81
2022/01/19 07:42:20;;;;;;;86.82;36.75;;;;;;;;;;4916690;29;20470;-79
2022/01/19 07:44:46;;;;;;;79.15;35.58;;;;;;;;;;4902097;29;20147;-78
2022/01/19 07:47:12;;;;;;;82.63;35.67;;;;;;;;;;4933881;29;20106;-79
2022/01/19 07:49:38;;;;;;;85.75;35.95;;;;;;;;;;4922986;29;20051;-79
2022/01/19 07:52:04;;;;;;;80.18;35.42;;;;;;;;;;4918230;29;21057;-80
2022/01/19 07:54:30;;;;;;;81.15;38.53;;;;;;;;;;4945442;28;20055;-77
2022/01/19 07:56:57;;;;;;;131.68;66.60;;;;;;;;;;4920800;29;20058;-80
2022/01/19 07:59:24;;;;;;;89.70;37.03;;;;;;;;;;4907259;29;20086;-78
2022/01/19 08:01:50;;;;;;;81.28;36.47;;;;;;;;;;4932797;29;20133;-80
2022/01/19 08:04:16;;;;;;;79.43;37.45;;;;;;;;;;4906611;29;20396;-79
2022/01/19 08:06:42;;;;;;;75.28;36.00;;;;;;;;;;4922643;29;20051;-80
2022/01/19 08:09:08;;;;;;;78.38;35.85;;;;;;;;;;4923513;29;20047;-80
2022/01/19 08:11:35;;;;;;;78.07;34.70;;;;;;;;;;4892844;29;20058;-79
2022/01/19 08:14:01;;;;;;;75.80;34.47;;;;;;;;;;4910318;29;20091;-79
2022/01/19 08:16:27;;;;;;;76.97;36.72;;;;;;;;;;4929522;29;20135;-79
2022/01/19 08:18:53;;;;;;;92.35;38.40;;;;;;;;;;4917348;29;20054;-78
2022/01/19 08:21:20;;;;;;;81.15;37.17;;;;;;;;;;4924656;29;20391;-80
2022/01/19 08:23:46;;;;;;;82.95;39.55;;;;;;;;;;4925292;29;20043;-79
2022/01/19 08:26:16;;;;;;;96.35;39.60;;;;;;;;;;4920755;29;20045;-79
2022/01/19 08:28:42;;;;;;;83.78;37.70;;;;;;;;;;4921890;29;20423;-79
2022/01/19 08:31:08;;;;;;;91.07;38.40;;;;;;;;;;4926604;29;20534;-79
2022/01/19 08:33:35;;;;;;;91.55;40.75;;;;;;;;;;4923186;29;20130;-79
2022/01/19 08:36:01;;;;;;;86.35;38.67;;;;;;;;;;4921505;29;20388;-80
2022/01/19 08:38:27;;;;;;;87.18;39.65;;;;;;;;;;4924781;29;20054;-79
2022/01/19 08:40:53;;;;;;;90.97;37.90;;;;;;;;;;4925079;29;20067;-79
2022/01/19 08:43:19;;;;;;;89.50;40.35;;;;;;;;;;4908305;29;20047;-79
2022/01/19 08:45:45;;;;;;;87.28;38.92;;;;;;;;;;4923741;29;20043;-79
2022/01/19 08:48:11;;;;;;;88.82;40.10;;;;;;;;;;4932672;29;20055;-79
2022/01/19 08:50:37;;;;;;;85.70;38.58;;;;;;;;;;4907588;29;20059;-80
2022/01/19 08:53:04;;;;;;;79.75;38.13;;;;;;;;;;4924989;29;20117;-80
2022/01/19 08:55:30;;;;;;;92.03;38.03;;;;;;;;;;4922864;29;20039;-79
2022/01/19 08:57:56;;;;;;;82.63;39.40;;;;;;;;;;4930466;29;20039;-80
2022/01/19 09:00:23;;;;;;;96.22;41.58;;;;;;;;;;4921624;29;20052;-79
2022/01/19 09:02:49;;;;;;;82.45;37.88;;;;;;;;;;4920265;29;20059;-79
2022/01/19 09:05:15;;;;;;;82.68;39.67;;;;;;;;;;4908147;29;20048;-80
2022/01/19 09:07:42;;;;;;;85.75;40.33;;;;;;;;;;4948654;29;20126;-79
2022/01/19 09:10:09;;;;;;;79.22;39.22;;;;;;;;;;4926677;29;20074;-79
2022/01/19 09:12:36;;;;;;;86.63;40.47;;;;;;;;;;4920371;29;20043;-79
2022/01/19 09:15:02;;;;;;;79.70;39.08;;;;;;;;;;4925698;29;20053;-79
2022/01/19 09:17:28;;;;;;;77.25;39.50;;;;;;;;;;4903197;29;20052;-79
2022/01/19 09:19:55;;;;;;;70.78;37.60;;;;;;;;;;4920640;29;20059;-78
2022/01/19 09:22:21;;;;;;;88.82;41.97;;;;;;;;;;4915414;29;20051;-80
2022/01/19 09:24:47;;;;;;;82.22;38.47;;;;;;;;;;4907725;29;20086;-78
2022/01/19 09:27:15;;;;;;;82.25;40.10;;;;;;;;;;4920685;29;20074;-78
2022/01/19 09:29:42;;;;;;;82.65;40.25;;;;;;;;;;4922133;29;20051;-79
2022/01/19 09:32:10;;;;;;;81.22;40.80;;;;;;;;;;4915693;29;20075;-79
2022/01/19 09:34:39;;;;;;;83.57;40.22;;;;;;;;;;4904999;29;20051;-79
2022/01/19 09:37:05;;;;;;;78.65;38.45;;;;;;;;;;4939422;28;20052;-80
2022/01/19 09:39:31;;;;;;;82.68;38.85;;;;;;;;;;4920711;29;20476;-80
2022/01/19 09:41:57;;;;;;;75.25;38.55;;;;;;;;;;4922019;29;20046;-79
2022/01/19 09:44:24;;;;;;;75.10;38.05;;;;;;;;;;4905035;29;20040;-80
2022/01/19 09:46:51;;;;;;;79.10;40.80;;;;;;;;;;4910844;29;20051;-79
2022/01/19 09:49:17;;;;;;;83.18;40.08;;;;;;;;;;4907920;29;20083;-80
2022/01/19 09:51:47;;;;;;;84.75;40.13;;;;;;;;;;4940140;29;20055;-79
2022/01/19 09:54:15;;;;;;;77.53;37.17;;;;;;;;;;4926214;29;20400;-79
2022/01/19 09:56:41;;;;;;;75.63;40.33;;;;;;;;;;4912253;29;20098;-80
2022/01/19 09:59:08;;;;;;;84.25;40.30;;;;;;;;;;4910589;29;20048;-79
2022/01/19 10:01:34;;;;;;;78.97;39.03;;;;;;;;;;4924878;29;20193;-79
2022/01/19 10:04:20;;;;;;;83.88;41.00;;;;;;;;;;4903694;29;20055;-79
2022/01/19 10:06:46;;;;;;;85.18;39.97;;;;;;;;;;4921510;29;20050;-80
2022/01/19 10:09:13;;;;;;;77.63;39.80;;;;;;;;;;4910674;29;20387;-80
2022/01/19 10:17:00;;;;;;;97.43;42.67;;;;;;;;;;4924391;29;20055;-82
2022/01/19 10:19:42;;;;;;;84.63;42.42;;;;;;;;;;4920723;29;20051;-82
2022/01/19 10:22:14;;;;;;;85.93;42.63;;;;;;;;;;4926133;29;20098;-82
2022/01/19 10:25:01;;;;;;;88.05;43.47;;;;;;;;;;4947953;28;20399;-83
2022/01/19 10:27:28;;;;;;;92.50;44.78;;;;;;;;;;4906891;29;20040;-82
2022/01/19 10:29:55;;;;;;;94.95;44.67;;;;;;;;;;4927170;29;20483;-82
2022/01/19 10:32:26;;;;;;;87.07;43.70;;;;;;;;;;4946226;29;20506;-83
2022/01/19 10:34:53;;;;;;;95.28;44.65;;;;;;;;;;4924242;29;20070;-82
2022/01/19 10:37:26;;;;;;;80.45;41.78;;;;;;;;;;4921547;29;20046;-83
2022/01/19 10:39:54;;;;;;;83.78;42.17;;;;;;;;;;4895635;29;20051;-83
2022/01/19 10:42:21;;;;;;;90.70;43.00;;;;;;;;;;4921626;29;20047;-83
2022/01/19 10:44:53;;;;;;;87.35;43.45;;;;;;;;;;4933205;29;20103;-82
2022/01/19 10:47:19;;;;;;;85.90;43.78;;;;;;;;;;4920846;29;20078;-83
2022/01/19 10:49:53;;;;;;;89.25;44.80;;;;;;;;;;4928143;29;20126;-83
2022/01/19 10:52:19;;;;;;;;;;;;;;;;;;4927279;28;20060;-81
2022/01/19 10:54:48;;;;;;;83.00;41.60;;;;;;;;;;4923732;29;19922;-81
2022/01/19 10:57:15;;;;;;;81.28;42.33;;;;;;;;;;4929212;29;20126;-82
2022/01/19 10:59:41;;;;;;;79.82;43.35;;;;;;;;;;4918913;29;20075;-82
2022/01/19 11:02:09;;;;;;;88.65;44.58;;;;;;;;;;4921416;29;20047;-81
2022/01/19 11:04:39;;;;;;;85.45;43.65;;;;;;;;;;4894416;29;20058;-82
2022/01/19 11:07:22;;;;;;;85.22;44.83;;;;;;;;;;4911543;29;20392;-82
2022/01/19 11:12:49;;;;;;;85.82;43.17;;;;;;;;;;4914851;29;20047;-83
2022/01/19 11:15:19;;;;;;;96.38;44.38;;;;;;;;;;4924680;29;20052;-82
2022/01/19 11:17:49;;;;;;;87.35;43.63;;;;;;;;;;4928100;29;20043;-82
2022/01/19 11:20:17;;;;;;;87.15;45.13;;;;;;;;;;4922549;29;20060;-81
2022/01/19 11:22:46;;;;;;;100.32;47.53;;;;;;;;;;4908175;29;20403;-82
2022/01/19 11:25:12;;;;;;;89.05;45.42;;;;;;;;;;4906670;29;20055;-80
2022/01/19 11:27:46;;;;;;;97.78;46.90;;;;;;;;;;4911840;28;20104;-81
2022/01/19 11:30:17;;;;;;;87.18;45.17;;;;;;;;;;4930165;29;20447;-82
2022/01/19 11:32:44;;;;;;;89.03;45.55;;;;;;;;;;4925485;29;20047;-82
2022/01/19 11:35:30;;;;;;;93.88;46.70;;;;;;;;;;4906308;29;20407;-82
2022/01/19 11:37:56;;;;;;;84.20;44.20;;;;;;;;;;4909171;29;20661;-81
2022/01/19 11:40:23;;;;;;;91.55;48.00;;;;;;;;;;4924016;29;20180;-81
2022/01/19 11:42:49;;;;;;;84.53;44.67;;;;;;;;;;4922536;29;20115;-81
2022/01/19 11:45:34;;;;;;;91.82;45.38;;;;;;;;;;4920089;29;20067;-82
2022/01/19 11:48:12;;;;;;;89.63;44.58;;;;;;;;;;4926218;29;20566;-80
2022/01/19 11:50:38;;;;;;;84.80;45.83;;;;;;;;;;4921111;29;20047;-83
2022/01/19 11:53:09;;;;;;;93.43;47.58;;;;;;;;;;4939456;29;20047;-81
2022/01/19 11:55:36;;;;;;;79.25;43.08;;;;;;;;;;4900376;29;20046;-78
2022/01/19 11:58:13;;;;;;;87.75;45.63;;;;;;;;;;4920565;29;20463;-83
2022/01/19 12:00:40;;;;;;;81.43;45.10;;;;;;;;;;4921520;29;20130;-83
2022/01/19 12:03:26;;;;;;;87.07;44.80;;;;;;;;;;4919486;29;20058;-82
2022/01/19 12:05:53;;;;;;;82.63;42.67;;;;;;;;;;4913859;29;20032;-78
2022/01/19 12:08:24;;;;;;;87.72;43.50;;;;;;;;;;4922578;29;20062;-80
2022/01/19 12:10:51;;;;;;;86.78;46.05;;;;;;;;;;4922959;29;20203;-81
2022/01/19 12:16:19;;;;;;;81.68;44.13;;;;;;;;;;4921015;29;20487;-81
2022/01/19 12:18:53;;;;;;;85.65;45.10;;;;;;;;;;4922551;29;20055;-80
2022/01/19 12:21:32;;;;;;;84.57;44.00;;;;;;;;;;4921265;29;20059;-79
2022/01/19 12:24:16;;;;;;;78.90;41.83;;;;;;;;;;4918966;29;20490;-79
2022/01/19 12:26:50;;;;;;;84.53;43.45;;;;;;;;;;4926546;29;20036;-77
2022/01/19 12:29:16;;;;;;;;;;;;;;;;;;4922006;29;20126;-78
2022/01/19 12:31:45;;;;;;;80.05;42.30;;;;;;;;;;4941344;29;20005;-77
2022/01/19 12:34:11;;;;;;;80.07;42.30;;;;;;;;;;4904731;29;20139;-76
2022/01/19 12:36:46;;;;;;;90.57;43.92;;;;;;;;;;4920788;28;20495;-81
2022/01/19 12:39:28;;;;;;;78.68;41.55;;;;;;;;;;4918243;28;20051;-78
2022/01/19 12:41:58;;;;;;;80.53;42.35;;;;;;;;;;4925418;29;20123;-80
2022/01/19 12:44:42;;;;;;;79.35;40.22;;;;;;;;;;4925977;29;20059;-82
2022/01/19 12:47:29;;;;;;;77.22;39.67;;;;;;;;;;4922514;29;20051;-80
2022/01/19 12:50:18;;;;;;;83.95;41.83;;;;;;;;;;4913542;29;20535;-78
2022/01/19 12:52:46;;;;;;;76.78;38.58;;;;;;;;;;4908111;29;20052;-77
2022/01/19 12:55:14;;;;;;;77.22;40.15;;;;;;;;;;4921313;29;20076;-81
2022/01/19 12:57:41;;;;;;;86.15;39.38;;;;;;;;;;4909239;29;20223;-78
2022/01/19 13:00:11;;;;;;;76.07;39.53;;;;;;;;;;4922574;29;20074;-79
2022/01/19 13:02:37;;;;;;;74.40;40.10;;;;;;;;;;4924407;29;20058;-77
2022/01/19 13:05:08;;;;;;;80.72;40.72;;;;;;;;;;4930279;29;20507;-76
2022/01/19 13:07:37;;;;;;;75.35;39.40;;;;;;;;;;4923088;29;20047;-78
2022/01/19 13:10:24;;;;;;;77.20;39.28;;;;;;;;;;4931636;29;20388;-77
2022/01/19 13:15:21;;;;;;;77.65;40.15;;;;;;;;;;4927784;29;20083;-77
2022/01/19 13:17:51;;;;;;;69.95;35.55;;;;;;;;;;4911289;29;20042;-78
2022/01/19 13:20:18;;;;;;;76.20;37.45;;;;;;;;;;4926792;29;20047;-78
2022/01/19 13:22:46;;;;;;;78.45;38.40;;;;;;;;;;4904938;29;20075;-78
2022/01/19 13:25:25;;;;;;;69.95;37.33;;;;;;;;;;4923472;29;20531;-78
2022/01/19 13:27:54;;;;;;;77.22;38.75;;;;;;;;;;4942223;29;20495;-78
2022/01/19 13:30:20;;;;;;;73.88;36.38;;;;;;;;;;4920532;29;20090;-77
2022/01/19 13:32:46;;;;;;;74.18;37.28;;;;;;;;;;4922694;29;20043;-77
2022/01/19 13:35:12;;;;;;;66.32;35.33;;;;;;;;;;4910269;29;20051;-79
2022/01/19 13:37:39;;;;;;;65.22;33.72;;;;;;;;;;4923623;29;20095;-77
2022/01/19 13:40:05;;;;;;;61.55;32.53;;;;;;;;;;4943588;29;20059;-81
2022/01/19 13:42:39;;;;;;;67.47;34.28;;;;;;;;;;4925061;29;20087;-78
2022/01/19 13:51:03;;;;;;;76.38;33.00;;;;;;;;;;4924924;29;20110;-80
2022/01/19 13:53:40;;;;;;;67.45;31.90;;;;;;;;;;4926080;29;20399;-77
2022/01/19 13:56:10;;;;;;;73.68;34.92;;;;;;;;;;4944245;29;20079;-76
2022/01/19 13:58:45;;;;;;;64.47;30.58;;;;;;;;;;4924508;29;20106;-75
2022/01/19 14:01:14;;;;;;;67.93;31.77;;;;;;;;;;4908126;29;21330;-79
2022/01/19 14:03:46;;;;;;;76.20;33.22;;;;;;;;;;4912630;29;20059;-80
2022/01/19 14:06:20;;;;;;;74.97;31.58;;;;;;;;;;4922880;29;20071;-78
2022/01/19 14:08:47;;;;;;;73.43;31.63;;;;;;;;;;4927050;29;20062;-79
2022/01/19 14:11:26;;;;;;;74.05;32.10;;;;;;;;;;4922576;29;20207;-80
2022/01/19 14:14:02;;;;;;;77.18;32.35;;;;;;;;;;4930092;29;20051;-78
2022/01/19 14:16:35;;;;;;;76.18;31.48;;;;;;;;;;4926906;29;20058;-78
2022/01/19 14:19:08;;;;;;;70.57;32.45;;;;;;;;;;4922703;29;20048;-78
2022/01/19 14:21:34;;;;;;;77.05;31.77;;;;;;;;;;4912696;29;20071;-78
2022/01/19 14:24:01;;;;;;;73.22;32.05;;;;;;;;;;4923930;29;20047;-78
2022/01/19 14:26:27;;;;;;;78.82;33.13;;;;;;;;;;4926389;29;20101;-78
2022/01/19 14:29:12;;;;;;;82.70;32.20;;;;;;;;;;4909465;29;20075;-78
2022/01/19 14:31:58;;;;;;;74.18;32.80;;;;;;;;;;4907134;29;20066;-81
2022/01/19 14:34:35;;;;;;;78.32;30.90;;;;;;;;;;4920929;29;20110;-78
2022/01/19 14:37:14;;;;;;;70.65;30.23;;;;;;;;;;4921934;29;20067;-76
2022/01/19 14:39:48;;;;;;;69.90;28.92;;;;;;;;;;4930156;29;20043;-79
2022/01/19 14:42:14;;;;;;;73.82;29.60;;;;;;;;;;4929951;29;20054;-79
2022/01/19 14:44:47;;;;;;;70.00;29.50;;;;;;;;;;4923750;29;20509;-78
2022/01/19 14:47:35;;;;;;;74.97;28.65;;;;;;;;;;4924395;29;20126;-78
2022/01/19 14:50:15;;;;;;;76.30;27.02;;;;;;;;;;4938689;29;20055;-77
2022/01/19 14:52:41;;;;;;;75.22;29.75;;;;;;;;;;4921484;29;20141;-80
2022/01/19 14:55:08;;;;;;;78.65;29.30;;;;;;;;;;4939069;29;20222;-76
2022/01/19 14:57:34;;;;;;;67.05;26.10;;;;;;;;;;4939888;29;20070;-77
2022/01/19 15:00:02;;;;;;;67.00;25.52;;;;;;;;;;4910748;29;20050;-77
2022/01/19 15:02:29;;;;;;;60.30;24.08;;;;;;;;;;4923103;29;20078;-77
2022/01/19 15:04:55;;;;;;;69.35;24.10;;;;;;;;;;4930534;29;20133;-75
2022/01/19 15:07:21;;;;;;;54.63;22.50;;;;;;;;;;4939504;29;20066;-79
2022/01/19 15:09:47;;;;;;;61.10;22.10;;;;;;;;;;4913859;29;20519;-81
2022/01/19 15:12:13;;;;;;;56.72;21.55;;;;;;;;;;4920016;29;20040;-79
2022/01/19 15:14:40;;;;;;;44.63;18.85;;;;;;;;;;4913026;29;20043;-81
2022/01/19 15:17:08;;;;;;;45.83;20.58;;;;;;;;;;4930331;29;20055;-80
2022/01/19 15:19:34;;;;;;;50.45;20.30;;;;;;;;;;4919013;29;20055;-80
2022/01/19 15:22:00;;;;;;;50.42;20.48;;;;;;;;;;4905688;29;20106;-79
2022/01/19 15:24:26;;;;;;;55.67;21.38;;;;;;;;;;4910037;29;20039;-80
2022/01/19 15:26:52;;;;;;;54.08;20.42;;;;;;;;;;4916576;29;20118;-80
2022/01/19 15:29:18;;;;;;;62.63;22.90;;;;;;;;;;4904878;29;20125;-80
2022/01/19 15:31:48;;;;;;;54.65;21.02;;;;;;;;;;4919153;29;20043;-79
2022/01/19 15:34:14;;;;;;;46.60;20.13;;;;;;;;;;4940953;29;20062;-78
2022/01/19 15:36:40;;;;;;;58.40;20.58;;;;;;;;;;4907613;29;20376;-79
2022/01/19 15:39:08;;;;;;;51.15;20.17;;;;;;;;;;4903540;29;20067;-79
2022/01/19 15:41:34;;;;;;;55.22;20.85;;;;;;;;;;4902625;29;20488;-78
2022/01/19 15:44:00;;;;;;;52.63;19.25;;;;;;;;;;4923831;29;20051;-77
2022/01/19 15:46:26;;;;;;;50.25;20.00;;;;;;;;;;4939279;29;20048;-78
2022/01/19 15:48:52;;;;;;;57.00;19.25;;;;;;;;;;4922128;29;20062;-79
2022/01/19 15:51:18;;;;;;;47.53;18.73;;;;;;;;;;4902495;29;20488;-80
2022/01/19 15:53:44;;;;;;;61.17;18.65;;;;;;;;;;4915463;29;20111;-80
2022/01/19 15:56:10;;;;;;;44.70;18.23;;;;;;;;;;4901450;29;20055;-80
2022/01/19 15:58:36;;;;;;;55.47;17.60;;;;;;;;;;4918997;29;20490;-80
2022/01/19 16:01:02;;;;;;;43.95;16.80;;;;;;;;;;4922992;29;20059;-79
2022/01/19 16:03:29;;;;;;;54.05;16.58;;;;;;;;;;4937373;29;20055;-79
2022/01/19 16:05:55;;;;;;;39.33;12.70;;;;;;;;;;4914895;29;20123;-79
2022/01/19 16:08:22;;;;;;;46.83;13.30;;;;;;;;;;4918042;29;20051;-78
2022/01/19 16:10:49;;;;;;;43.47;13.02;;;;;;;;;;4912072;29;20110;-79
2022/01/19 16:13:15;;;;;;;40.67;10.82;;;;;;;;;;4940355;28;20063;-79
2022/01/19 16:15:41;;;;;;;34.90;10.27;;;;;;;;;;4938592;29;20049;-79